Normandie — FNNO — position and weather

sailwx.info

Track history (hours):
 
Tides and Currents Weather Stations Pressure Air Temp Water Temp Dewpoint Dewpoint Depression Visibility Wind Speed Wind Dir Waves Ship Positions

Normandie

Operator: Brittany Ferries

Last reported at 2018-Sep-24 21:30 UTC. Time now 2018-Sep-24 21:39 UTC.
Position N 50°49' W 001°06'.

Length 161 m; beam 27 m.

Type: Passenger vessel. MMSI: 227273000.

Date/timePositionNaut miles runAvg speedWind from/ knotsBaromVisibWave heightAir tempDewpointWater temp
2018-Sep-24 21:30N 50°49' W 001°06'0 0.0
2018-Sep-24 21:03N 50°49' W 001°06'0 0.0
2018-Sep-24 21:01N 50°49' W 001°06'0 0.0
2018-Sep-24 20:31N 50°49' W 001°06'1 1.2
2018-Sep-24 20:03N 50°49' W 001°07'0 8.5
2018-Sep-24 20:01N 50°48' W 001°07'714.3
2018-Sep-24 19:30N 50°42' W 001°01'818.2
2018-Sep-24 19:03N 50°35' W 000°56'118.3
2018-Sep-24 19:00N 50°34' W 000°55'2818.5
2018-Sep-24 17:28N 50°07' W 000°38'818.8
2018-Sep-24 17:03N 50°00' W 000°34'119.1
2018-Sep-24 17:00N 49°59' W 000°33'918.8
2018-Sep-24 16:30N 49°51' W 000°28'919.0
2018-Sep-24 16:01N 49°41' W 000°26'019.2
2018-Sep-24 16:00N 49°41' W 000°25'1019.6
2018-Sep-24 15:30N 49°32' W 000°20'919.5
2018-Sep-24 15:03N 49°24' W 000°16'119.4
2018-Sep-24 15:00N 49°23' W 000°16'510.8
2018-Sep-24 14:30N 49°17' W 000°15'0 0.0
2018-Sep-24 14:00N 49°17' W 000°15'0 0.0
2018-Sep-24 13:30N 49°17' W 000°15'0 0.0
2018-Sep-24 13:03N 49°17' W 000°15'0 0.0
2018-Sep-24 13:00N 49°17' W 000°15'510.1
2018-Sep-24 12:31N 49°22' W 000°14'818.4
2018-Sep-24 12:04N 49°30' W 000°16'118.7
2018-Sep-24 12:01N 49°31' W 000°17'918.3
2018-Sep-24 11:30N 49°40' W 000°21'817.3
2018-Sep-24 11:03N 49°47' W 000°26'117.5
2018-Sep-24 11:00N 49°48' W 000°26'917.7
2018-Sep-24 10:31N 49°56' W 000°32'817.9
2018-Sep-24 10:03N 50°04' W 000°37'117.8
2018-Sep-24 10:00N 50°04' W 000°37'3119.1
2018-Sep-24 08:24N 50°33' W 000°55'619.1
2018-Sep-24 08:04N 50°39' W 000°59'119.1
2018-Sep-24 08:01N 50°40' W 000°59'917.2
2018-Sep-24 07:30N 50°47' W 001°07'2 3.5
2018-Sep-24 07:03N 50°49' W 001°06'0 0.0
2018-Sep-24 07:00N 50°49' W 001°06'0 0.0
2018-Sep-24 06:30N 50°49' W 001°06'0 0.0
2018-Sep-24 06:03N 50°49' W 001°06'0 0.0
2018-Sep-24 06:00N 50°49' W 001°06'1 1.3
2018-Sep-24 05:30N 50°48' W 001°07'511.7
2018-Sep-24 05:03N 50°44' W 001°03'117.8
2018-Sep-24 05:00N 50°43' W 001°02'815.6
2018-Sep-24 04:30N 50°36' W 000°57'614.4
2018-Sep-24 04:03N 50°30' W 000°53'114.7
2018-Sep-24 04:00N 50°30' W 000°53'2914.7
2018-Sep-24 02:02N 50°03' W 000°36'115.1
2018-Sep-24 02:00N 50°02' W 000°35'715.0
2018-Sep-24 01:30N 49°55' W 000°31'613.0
2018-Sep-24 01:03N 49°50' W 000°29'110.3
2018-Sep-24 01:00N 49°49' W 000°29'510.3
2018-Sep-24 00:30N 49°44' W 000°28'510.6
2018-Sep-24 00:03N 49°39' W 000°26'010.5
2018-Sep-24 00:00N 49°39' W 000°26'510.2
2018-Sep-23 23:30N 49°34' W 000°24'510.0
2018-Sep-23 23:03N 49°30' W 000°21'1 9.9
2018-Sep-23 23:00N 49°29' W 000°21'5 9.8
2018-Sep-23 22:30N 49°25' W 000°17'4 9.7
2018-Sep-23 22:03N 49°21' W 000°15'1 9.5
2018-Sep-23 22:00N 49°21' W 000°15'3 6.4
2018-Sep-23 21:30N 49°17' W 000°15'0 0.0
2018-Sep-23 21:03N 49°17' W 000°15'0 0.0
2018-Sep-23 21:00N 49°17' W 000°15'0 0.0
2018-Sep-23 20:30N 49°17' W 000°15'0 0.0
2018-Sep-23 20:03N 49°17' W 000°15'0 0.0
2018-Sep-23 20:00N 49°17' W 000°15'0 0.0
2018-Sep-23 19:31N 49°17' W 000°15'4 9.6
2018-Sep-23 19:03N 49°22' W 000°14'119.7
2018-Sep-23 19:00N 49°23' W 000°14'1020.0
2018-Sep-23 18:30N 49°32' W 000°18'919.9
2018-Sep-23 18:03N 49°41' W 000°21'119.8
2018-Sep-23 18:00N 49°42' W 000°22'1019.9
2018-Sep-23 17:30N 49°51' W 000°26'919.7
2018-Sep-23 17:03N 49°59' W 000°33'119.5
2018-Sep-23 17:00N 50°00' W 000°34'919.3
2018-Sep-23 16:30N 50°09' W 000°39'2619.1
2018-Sep-23 15:09N 50°33' W 000°55'319.1
2018-Sep-23 14:59N 50°36' W 000°57'817.5
2018-Sep-23 14:30N 50°44' W 001°02'6 5.6
2018-Sep-23 13:30N 50°49' W 001°06'0 0.0
2018-Sep-23 13:03N 50°49' W 001°06'0 0.0
2018-Sep-23 13:00N 50°49' W 001°06'0 0.0
2018-Sep-23 12:30N 50°49' W 001°06'0 0.2
2018-Sep-23 12:04N 50°49' W 001°06'0 5.0
2018-Sep-23 12:00N 50°49' W 001°06'612.3
2018-Sep-23 11:31N 50°43' W 001°02'818.4
2018-Sep-23 11:03N 50°36' W 000°57'119.2
2018-Sep-23 11:01N 50°35' W 000°56'2818.7
2018-Sep-23 09:32N 50°09' W 000°39'118.4
2018-Sep-23 09:29N 50°09' W 000°39'717.6
2018-Sep-23 09:03N 50°01' W 000°36'116.6
2018-Sep-23 09:01N 50°00' W 000°36'917.6
2018-Sep-23 08:31N 49°52' W 000°31'818.3
2018-Sep-23 08:03N 49°44' W 000°28'118.4
2018-Sep-23 08:01N 49°43' W 000°27'918.3
2018-Sep-23 07:31N 49°35' W 000°22'818.2
2018-Sep-23 07:04N 49°27' W 000°17'118.1
2018-Sep-23 07:00N 49°26' W 000°17'917.4
2018-Sep-23 06:30N 49°18' W 000°15'1 1.2
2018-Sep-23 06:03N 49°17' W 000°15'0 0.0
2018-Sep-23 06:00N 49°17' W 000°15'0 0.0
2018-Sep-23 05:30N 49°17' W 000°15'0 0.0
2018-Sep-23 05:03N 49°17' W 000°15'0 0.0
2018-Sep-23 05:00N 49°17' W 000°15'0 0.2
2018-Sep-23 04:30N 49°17' W 000°15'715.2
2018-Sep-23 04:04N 49°24' W 000°13'113.4
2018-Sep-23 04:01N 49°25' W 000°13'611.4
2018-Sep-23 03:30N 49°30' W 000°17'614.0
2018-Sep-23 03:03N 49°36' W 000°20'113.9
2018-Sep-23 03:00N 49°37' W 000°20'713.9
2018-Sep-23 02:30N 49°43' W 000°24'614.3
2018-Sep-23 02:04N 49°49' W 000°28'114.1
2018-Sep-23 02:01N 49°50' W 000°28'713.9
2018-Sep-23 01:30N 49°56' W 000°33'613.9
2018-Sep-23 01:03N 50°01' W 000°37'113.9
2018-Sep-23 01:00N 50°02' W 000°38'3014.5
2018-Sep-22 22:55N 50°31' W 000°54'615.0
2018-Sep-22 22:30N 50°36' W 000°58'715.1
2018-Sep-22 22:03N 50°42' W 001°02'114.0
2018-Sep-22 22:00N 50°43' W 001°03'612.1
2018-Sep-22 21:30N 50°49' W 001°06'0 0.8
2018-Sep-22 21:04N 50°49' W 001°06'0 0.0
2018-Sep-22 21:01N 50°49' W 001°06'0 0.0
2018-Sep-22 20:31N 50°49' W 001°06'0 0.4
2018-Sep-22 20:04N 50°49' W 001°06'0 6.0
2018-Sep-22 20:00N 50°49' W 001°07'713.5
2018-Sep-22 19:30N 50°42' W 001°02'918.9
2018-Sep-22 19:03N 50°35' W 000°56'119.3
2018-Sep-22 19:00N 50°34' W 000°56'2818.9
2018-Sep-22 17:30N 50°07' W 000°40'819.0
2018-Sep-22 17:03N 49°59' W 000°38'118.9
2018-Sep-22 17:00N 49°58' W 000°37'919.0
2018-Sep-22 16:30N 49°49' W 000°33'818.9
2018-Sep-22 16:03N 49°41' W 000°27'119.0
2018-Sep-22 16:00N 49°41' W 000°27'1019.2
2018-Sep-22 15:30N 49°32' W 000°21'920.0
2018-Sep-22 15:03N 49°23' W 000°16'119.1
2018-Sep-22 15:00N 49°22' W 000°16'5 5.3
2018-Sep-22 14:03N 49°17' W 000°15'0 0.0
2018-Sep-22 14:00N 49°17' W 000°15'0 0.0
2018-Sep-22 13:30N 49°17' W 000°15'0 0.0
2018-Sep-22 13:03N 49°17' W 000°15'0 0.0
2018-Sep-22 13:00N 49°17' W 000°15'510.3
2018-Sep-22 12:30N 49°22' W 000°14'818.8
2018-Sep-22 12:03N 49°31' W 000°17'118.9
2018-Sep-22 12:00N 49°32' W 000°17'917.5
2018-Sep-22 11:30N 49°40' W 000°22'817.6
2018-Sep-22 11:03N 49°47' W 000°27'117.7
2018-Sep-22 11:00N 49°48' W 000°27'917.9
2018-Sep-22 10:30N 49°56' W 000°32'818.0
2018-Sep-22 10:03N 50°04' W 000°37'118.0
2018-Sep-22 10:00N 50°05' W 000°37'2718.8
2018-Sep-22 08:34N 50°30' W 000°53'219.7
2018-Sep-22 08:28N 50°32' W 000°54'819.6
2018-Sep-22 08:03N 50°39' W 000°59'118.8
2018-Sep-22 08:00N 50°40' W 000°59'917.0
2018-Sep-22 07:30N 50°47' W 001°07'2 3.4
2018-Sep-22 07:03N 50°49' W 001°06'0 0.0
2018-Sep-22 07:00N 50°49' W 001°06'0 0.0
2018-Sep-22 06:30N 50°49' W 001°06'0 0.0
2018-Sep-22 06:03N 50°49' W 001°06'0 0.0
2018-Sep-22 06:00N 50°49' W 001°06'0 0.4
2018-Sep-22 05:30N 50°49' W 001°06'510.9
2018-Sep-22 05:03N 50°44' W 001°04'117.4
2018-Sep-22 05:01N 50°44' W 001°03'917.2
2018-Sep-22 04:30N 50°36' W 000°57'815.2
2018-Sep-22 04:00N 50°29' W 000°53'2711.4
2018-Sep-22 01:38N 50°03' W 000°38'110.7
2018-Sep-22 01:30N 50°02' W 000°37'510.5
2018-Sep-22 01:03N 49°58' W 000°34'110.6
2018-Sep-22 01:01N 49°57' W 000°33'510.5
2018-Sep-22 00:30N 49°52' W 000°30'510.4
2018-Sep-22 00:04N 49°48' W 000°29'110.5
2018-Sep-22 00:01N 49°47' W 000°28'510.6
2018-Sep-21 23:30N 49°42' W 000°26'510.6
2018-Sep-21 23:03N 49°38' W 000°23'010.5
2018-Sep-21 23:01N 49°38' W 000°23'510.5
2018-Sep-21 22:30N 49°32' W 000°20'510.6
2018-Sep-21 22:04N 49°28' W 000°18'110.7
2018-Sep-21 22:01N 49°27' W 000°18'510.9
2018-Sep-21 21:30N 49°22' W 000°15'511.0
2018-Sep-21 21:03N 49°17' W 000°15'0 0.8
2018-Sep-21 21:00N 49°17' W 000°15'0 0.0
2018-Sep-21 20:30N 49°17' W 000°15'0 0.0
2018-Sep-21 20:03N 49°17' W 000°15'0 0.0
2018-Sep-21 20:00N 49°17' W 000°15'0 0.0
2018-Sep-21 19:30N 49°17' W 000°15'3 6.7
2018-Sep-21 19:03N 49°20' W 000°14'118.9
2018-Sep-21 19:00N 49°21' W 000°14'1019.5
2018-Sep-21 18:30N 49°31' W 000°18'817.6
2018-Sep-21 18:03N 49°38' W 000°22'117.7
2018-Sep-21 18:00N 49°39' W 000°23'917.8
2018-Sep-21 17:30N 49°47' W 000°27'818.0
2018-Sep-21 17:03N 49°55' W 000°31'117.9
2018-Sep-21 17:00N 49°56' W 000°32'917.9
2018-Sep-21 16:30N 50°04' W 000°37'3017.7
2018-Sep-21 14:49N 50°32' W 000°54'617.7
2018-Sep-21 14:30N 50°37' W 000°57'1312.7
2018-Sep-21 13:31N 50°49' W 001°06'0 0.0
2018-Sep-21 13:04N 50°49' W 001°06'0 0.0
2018-Sep-21 13:01N 50°49' W 001°06'0 0.0
2018-Sep-21 12:30N 50°49' W 001°06'1 3.0
2018-Sep-21 12:03N 50°47' W 001°07'0 8.1
2018-Sep-21 12:01N 50°47' W 001°06'815.1
2018-Sep-21 11:31N 50°41' W 001°00'919.2
2018-Sep-21 11:04N 50°33' W 000°56'119.5
2018-Sep-21 11:00N 50°32' W 000°55'2519.0
2018-Sep-21 09:41N 50°08' W 000°40'418.9
2018-Sep-21 09:30N 50°05' W 000°38'818.8
2018-Sep-21 09:04N 49°57' W 000°35'118.5
2018-Sep-21 09:01N 49°56' W 000°34'918.3
2018-Sep-21 08:31N 49°48' W 000°30'818.4
2018-Sep-21 08:03N 49°40' W 000°25'118.3
2018-Sep-21 08:00N 49°39' W 000°25'918.4
2018-Sep-21 07:30N 49°30' W 000°20'818.6
2018-Sep-21 07:03N 49°22' W 000°15'118.4
2018-Sep-21 07:00N 49°22' W 000°15'4 8.4
2018-Sep-21 06:30N 49°17' W 000°15'0 0.0
2018-Sep-21 06:03N 49°17' W 000°15'0 0.0
2018-Sep-21 06:00N 49°17' W 000°15'0 0.0
2018-Sep-21 05:30N 49°17' W 000°15'0 0.0
2018-Sep-21 05:03N 49°17' W 000°15'0 0.0
2018-Sep-21 05:00N 49°17' W 000°15'0 0.3
2018-Sep-21 04:31N 49°17' W 000°15'715.3
2018-Sep-21 04:03N 49°24' W 000°14'118.9
2018-Sep-21 04:01N 49°25' W 000°15'1019.1
2018-Sep-21 03:31N 49°34' W 000°19'919.1
2018-Sep-21 03:03N 49°43' W 000°22'119.5
2018-Sep-21 03:01N 49°44' W 000°22'917.4
2018-Sep-21 02:31N 49°51' W 000°29'817.5
2018-Sep-21 02:03N 49°57' W 000°36'117.1
2018-Sep-21 02:01N 49°58' W 000°37'917.2
2018-Sep-21 01:30N 50°05' W 000°44'816.9
2018-Sep-21 01:03N 50°12' W 000°51'116.5
2018-Sep-21 01:00N 50°12' W 000°51'1216.0
2018-Sep-21 00:14N 50°22' W 001°04'315.9
2018-Sep-21 00:03N 50°24' W 001°07'115.9
2018-Sep-21 00:00N 50°24' W 001°08'813.7
2018-Sep-20 23:23N 50°32' W 001°12'412.1
2018-Sep-20 23:03N 50°36' W 001°08'115.2
2018-Sep-20 23:00N 50°36' W 001°07'713.6
2018-Sep-20 22:31N 50°42' W 001°01'613.3
2018-Sep-20 22:04N 50°47' W 001°06'112.4
2018-Sep-20 22:01N 50°47' W 001°07'1 2.9
2018-Sep-20 21:31N 50°49' W 001°06'0 0.0
2018-Sep-20 21:04N 50°49' W 001°06'0 0.0
2018-Sep-20 21:01N 50°49' W 001°06'0 0.0
2018-Sep-20 20:31N 50°49' W 001°06'0 0.2
2018-Sep-20 20:04N 50°49' W 001°06'0 5.3
2018-Sep-20 20:01N 50°49' W 001°06'612.9
2018-Sep-20 19:31N 50°43' W 001°02'919.0
2018-Sep-20 19:03N 50°35' W 000°56'119.5
2018-Sep-20 19:00N 50°34' W 000°55'2519.3
2018-Sep-20 17:43N 50°11' W 000°40'419.0
2018-Sep-20 17:30N 50°08' W 000°38'818.9
2018-Sep-20 17:03N 49°60' W 000°33'118.8
2018-Sep-20 17:00N 49°59' W 000°33'1019.1
2018-Sep-20 16:30N 49°50' W 000°28'919.1
2018-Sep-20 16:03N 49°42' W 000°24'119.0
2018-Sep-20 16:00N 49°41' W 000°24'1019.2
2018-Sep-20 15:30N 49°31' W 000°20'919.0
2018-Sep-20 15:03N 49°23' W 000°16'118.5
2018-Sep-20 15:00N 49°22' W 000°15'5 5.3
2018-Sep-20 14:03N 49°17' W 000°15'0 0.0
2018-Sep-20 14:00N 49°17' W 000°15'0 0.0
2018-Sep-20 13:30N 49°17' W 000°15'0 0.0
2018-Sep-20 13:03N 49°17' W 000°15'0 0.0
2018-Sep-20 13:00N 49°17' W 000°15'0 0.0
2018-Sep-20 12:30N 49°17' W 000°15'0 0.0
2018-Sep-20 12:03N 49°17' W 000°15'0 0.3
2018-Sep-20 12:00N 49°17' W 000°15'510.4
2018-Sep-20 11:30N 49°23' W 000°15'715.5
2018-Sep-20 11:03N 49°29' W 000°18'112.9
2018-Sep-20 11:00N 49°29' W 000°19'1 2.4
2018-Sep-20 10:30N 49°28' W 000°20'1 1.3
2018-Sep-20 10:03N 49°28' W 000°20'0 1.6
2018-Sep-20 10:00N 49°28' W 000°21'1 1.6
2018-Sep-20 09:30N 49°28' W 000°22'1 1.6
2018-Sep-20 09:03N 49°28' W 000°23'0 1.7
2018-Sep-20 09:00N 49°28' W 000°23'1 1.7
2018-Sep-20 08:30N 49°27' W 000°24'1 1.8
2018-Sep-20 08:03N 49°27' W 000°25'0 1.6
2018-Sep-20 08:00N 49°27' W 000°26'1 1.7
2018-Sep-20 07:30N 49°27' W 000°27'1 1.6
2018-Sep-20 07:03N 49°26' W 000°28'0 1.5
2018-Sep-20 07:00N 49°26' W 000°28'1 1.4
2018-Sep-20 06:30N 49°26' W 000°28'0 0.9
2018-Sep-20 06:03N 49°25' W 000°29'0 0.5
2018-Sep-20 06:00N 49°25' W 000°29'5 9.6
2018-Sep-20 05:30N 49°24' W 000°22'511.8
2018-Sep-20 05:03N 49°21' W 000°15'010.0
2018-Sep-20 05:00N 49°20' W 000°15'3 6.2
2018-Sep-20 04:30N 49°17' W 000°15'0 0.0
2018-Sep-20 04:03N 49°17' W 000°15'0 0.0
2018-Sep-20 04:00N 49°17' W 000°15'0 0.0
2018-Sep-20 03:30N 49°17' W 000°15'0 0.0
2018-Sep-20 03:03N 49°17' W 000°15'0 0.0
2018-Sep-20 03:00N 49°17' W 000°15'0 0.0
2018-Sep-20 02:30N 49°17' W 000°15'0 0.0
2018-Sep-20 02:03N 49°17' W 000°15'0 0.0
2018-Sep-20 02:00N 49°17' W 000°15'0 0.0
2018-Sep-20 01:30N 49°17' W 000°15'0 0.0
2018-Sep-20 01:03N 49°17' W 000°15'0 0.0
2018-Sep-20 01:00N 49°17' W 000°15'0 0.0
2018-Sep-20 00:30N 49°17' W 000°15'0 0.0
2018-Sep-20 00:03N 49°17' W 000°15'0 0.0
2018-Sep-20 00:00N 49°17' W 000°15'0 0.0
2018-Sep-19 23:30N 49°17' W 000°15'0 0.0
2018-Sep-19 23:03N 49°17' W 000°15'0 0.0
2018-Sep-19 23:00N 49°17' W 000°15'0 0.0
2018-Sep-19 22:30N 49°17' W 000°15'0 0.0
2018-Sep-19 22:03N 49°17' W 000°15'0 0.0
2018-Sep-19 22:00N 49°17' W 000°15'0 0.0
2018-Sep-19 21:30N 49°17' W 000°15'0 0.0
2018-Sep-19 21:03N 49°17' W 000°15'0 0.0
2018-Sep-19 21:00N 49°17' W 000°15'0 0.0
2018-Sep-19 20:30N 49°17' W 000°15'0 0.0
2018-Sep-19 20:03N 49°17' W 000°15'0 0.0
2018-Sep-19 20:00N 49°17' W 000°15'0 0.0
2018-Sep-19 19:30N 49°17' W 000°15'0 0.0
2018-Sep-19 19:03N 49°17' W 000°15'0 0.0
2018-Sep-19 19:00N 49°17' W 000°15'0 0.0
2018-Sep-19 18:30N 49°17' W 000°15'0 0.0
2018-Sep-19 18:03N 49°17' W 000°15'0 0.0
2018-Sep-19 18:00N 49°17' W 000°15'0 0.0
2018-Sep-19 17:30N 49°17' W 000°15'0 0.0
2018-Sep-19 17:03N 49°17' W 000°15'0 0.0
2018-Sep-19 17:00N 49°17' W 000°15'0 0.0
2018-Sep-19 16:30N 49°17' W 000°15'0 0.0
2018-Sep-19 16:03N 49°17' W 000°15'0 0.0
2018-Sep-19 16:00N 49°17' W 000°15'0 0.0
2018-Sep-19 15:30N 49°17' W 000°15'0 0.0
2018-Sep-19 15:03N 49°17' W 000°15'0 0.0
2018-Sep-19 15:00N 49°17' W 000°15'0 0.0
2018-Sep-19 14:30N 49°17' W 000°15'0 0.0
2018-Sep-19 13:30N 49°17' W 000°15'0 0.0
2018-Sep-19 13:03N 49°17' W 000°15'0 0.0
2018-Sep-19 13:00N 49°17' W 000°15'4 8.4
2018-Sep-19 12:30N 49°22' W 000°14'816.8
2018-Sep-19 12:03N 49°29' W 000°18'118.8
2018-Sep-19 12:00N 49°29' W 000°19'918.6
2018-Sep-19 11:30N 49°37' W 000°26'818.4
2018-Sep-19 11:03N 49°45' W 000°31'118.5
2018-Sep-19 11:00N 49°46' W 000°31'918.3
2018-Sep-19 10:30N 49°55' W 000°33'818.1
2018-Sep-19 10:03N 50°03' W 000°38'117.9
2018-Sep-19 10:00N 50°03' W 000°38'2818.8
2018-Sep-19 08:32N 50°30' W 000°52'118.5
2018-Sep-19 08:28N 50°31' W 000°52'818.4
2018-Sep-19 08:03N 50°38' W 000°58'118.6
2018-Sep-19 08:00N 50°38' W 000°59'917.1
2018-Sep-19 07:30N 50°46' W 001°05'3 6.4
2018-Sep-19 07:03N 50°49' W 001°06'0 0.0
2018-Sep-19 07:01N 50°49' W 001°06'0 0.0
2018-Sep-19 06:30N 50°49' W 001°06'0 0.0
2018-Sep-19 06:04N 50°49' W 001°06'0 0.0
2018-Sep-19 06:01N 50°49' W 001°06'0 0.2
2018-Sep-19 05:30N 50°49' W 001°06'4 9.1
2018-Sep-19 05:03N 50°45' W 001°05'118.6
2018-Sep-19 05:00N 50°44' W 001°04'816.6
2018-Sep-19 04:31N 50°37' W 000°58'614.4
2018-Sep-19 04:04N 50°31' W 000°54'114.3
2018-Sep-19 03:59N 50°30' W 000°54'914.1
2018-Sep-19 03:23N 50°21' W 000°51'614.4
2018-Sep-19 03:00N 50°16' W 000°50'714.4
2018-Sep-19 02:29N 50°08' W 000°49'614.6
2018-Sep-19 02:03N 50°02' W 000°49'114.3
2018-Sep-19 02:00N 50°01' W 000°48'714.2
2018-Sep-19 01:31N 49°54' W 000°47'614.3
2018-Sep-19 01:03N 49°48' W 000°46'114.7
2018-Sep-19 01:01N 49°47' W 000°46'714.7
2018-Sep-19 00:30N 49°40' W 000°44'512.2
2018-Sep-19 00:03N 49°35' W 000°42'110.8
2018-Sep-19 00:00N 49°34' W 000°42'510.2
2018-Sep-18 23:30N 49°32' W 000°35'510.5
2018-Sep-18 23:03N 49°30' W 000°29'110.6
2018-Sep-18 23:00N 49°30' W 000°28'510.8
2018-Sep-18 22:31N 49°26' W 000°21'511.1
2018-Sep-18 22:03N 49°23' W 000°16'110.9
2018-Sep-18 22:00N 49°22' W 000°15'510.2
2018-Sep-18 21:30N 49°17' W 000°15'0 0.1
2018-Sep-18 21:03N 49°17' W 000°15'0 0.0
2018-Sep-18 21:00N 49°17' W 000°15'0 0.0
2018-Sep-18 20:31N 49°17' W 000°15'0 0.0
2018-Sep-18 20:03N 49°17' W 000°15'0 0.0
2018-Sep-18 20:00N 49°17' W 000°15'4 8.1
2018-Sep-18 19:30N 49°21' W 000°14'919.0
2018-Sep-18 19:03N 49°30' W 000°17'119.3
2018-Sep-18 19:00N 49°31' W 000°17'1019.5
2018-Sep-18 18:30N 49°40' W 000°22'919.5
2018-Sep-18 18:03N 49°48' W 000°27'119.5
2018-Sep-18 18:00N 49°49' W 000°27'1019.6
2018-Sep-18 17:30N 49°58' W 000°33'716.6
2018-Sep-18 17:04N 50°05' W 000°38'117.4
2018-Sep-18 17:00N 50°06' W 000°38'918.0
2018-Sep-18 16:30N 50°14' W 000°44'2017.6
2018-Sep-18 15:21N 50°33' W 000°55'517.2
2018-Sep-18 15:03N 50°38' W 000°58'117.2
2018-Sep-18 15:00N 50°39' W 000°59'816.2
2018-Sep-18 14:31N 50°45' W 001°05'3 6.4
2018-Sep-18 14:00N 50°49' W 001°06'0 0.0
2018-Sep-18 13:30N 50°49' W 001°06'0 0.0
2018-Sep-18 13:03N 50°49' W 001°06'0 0.0
2018-Sep-18 13:00N 50°49' W 001°06'0 0.1
2018-Sep-18 12:30N 50°49' W 001°06'3 6.4
2018-Sep-18 12:04N 50°46' W 001°05'114.9
2018-Sep-18 12:01N 50°45' W 001°05'5 9.2
2018-Sep-18 11:30N 50°42' W 000°60'817.0
2018-Sep-18 11:03N 50°35' W 000°56'119.0
2018-Sep-18 11:00N 50°34' W 000°56'2819.2
2018-Sep-18 09:32N 50°08' W 000°39'119.4
2018-Sep-18 09:30N 50°07' W 000°38'919.5
2018-Sep-18 09:03N 49°59' W 000°34'119.7
2018-Sep-18 09:00N 49°58' W 000°33'1019.7
2018-Sep-18 08:30N 49°48' W 000°29'919.8
2018-Sep-18 08:03N 49°40' W 000°26'120.0
2018-Sep-18 08:00N 49°39' W 000°25'1019.9
2018-Sep-18 07:30N 49°30' W 000°19'919.7
2018-Sep-18 07:03N 49°21' W 000°15'118.8
2018-Sep-18 07:00N 49°20' W 000°15'3 6.1
2018-Sep-18 06:30N 49°17' W 000°15'0 0.0
2018-Sep-18 06:03N 49°17' W 000°15'0 0.0
2018-Sep-18 06:00N 49°17' W 000°15'0 0.0
2018-Sep-18 05:30N 49°17' W 000°15'0 0.0
2018-Sep-18 05:03N 49°17' W 000°15'0 0.0
2018-Sep-18 05:00N 49°17' W 000°15'0 0.3
2018-Sep-18 04:31N 49°17' W 000°15'715.5
2018-Sep-18 04:04N 49°24' W 000°15'119.1
2018-Sep-18 04:01N 49°25' W 000°16'917.7
2018-Sep-18 03:30N 49°33' W 000°22'614.5
2018-Sep-18 03:03N 49°39' W 000°26'114.4
2018-Sep-18 03:00N 49°40' W 000°27'714.6
2018-Sep-18 02:31N 49°46' W 000°31'714.8
2018-Sep-18 02:03N 49°52' W 000°35'115.2
2018-Sep-18 02:00N 49°53' W 000°35'714.8
2018-Sep-18 01:30N 49°60' W 000°40'815.3
2018-Sep-18 00:59N 50°07' W 000°46'714.6
2018-Sep-18 00:28N 50°14' W 000°48'614.6
2018-Sep-18 00:03N 50°20' W 000°49'315.0
2018-Sep-17 23:52N 50°23' W 000°50'615.3
2018-Sep-17 23:28N 50°29' W 000°53'615.3
2018-Sep-17 23:04N 50°35' W 000°56'115.5
2018-Sep-17 23:00N 50°35' W 000°57'715.1
2018-Sep-17 22:30N 50°42' W 001°01'613.1
2018-Sep-17 22:03N 50°47' W 001°07'110.1
2018-Sep-17 22:00N 50°48' W 001°07'1 2.2
2018-Sep-17 21:30N 50°49' W 001°06'0 0.0
2018-Sep-17 21:03N 50°49' W 001°06'0 0.0
2018-Sep-17 21:00N 50°49' W 001°06'0 0.0
2018-Sep-17 20:30N 50°49' W 001°06'0 1.0
2018-Sep-17 20:03N 50°49' W 001°07'0 8.5
2018-Sep-17 20:00N 50°48' W 001°07'5 9.0
2018-Sep-17 19:30N 50°44' W 001°04'817.7
2018-Sep-17 19:03N 50°37' W 000°58'119.6
2018-Sep-17 19:00N 50°36' W 000°57'1019.6
2018-Sep-17 18:30N 50°27' W 000°52'919.2
2018-Sep-17 18:03N 50°19' W 000°47'119.2
2018-Sep-17 18:00N 50°18' W 000°47'1019.5
2018-Sep-17 17:30N 50°09' W 000°41'919.8
2018-Sep-17 17:03N 50°01' W 000°36'119.0
2018-Sep-17 17:00N 49°60' W 000°35'1019.3
2018-Sep-17 16:30N 49°51' W 000°30'919.5
2018-Sep-17 16:03N 49°42' W 000°26'119.5
2018-Sep-17 16:00N 49°41' W 000°26'1019.4
2018-Sep-17 15:30N 49°32' W 000°21'919.1
2018-Sep-17 15:03N 49°24' W 000°16'119.1
2018-Sep-17 15:00N 49°23' W 000°16'612.2
2018-Sep-17 14:31N 49°17' W 000°15'0 0.0
2018-Sep-17 14:00N 49°17' W 000°15'0 0.0
2018-Sep-17 13:31N 49°17' W 000°15'0 0.0
2018-Sep-17 13:04N 49°17' W 000°15'0 0.0
2018-Sep-17 13:01N 49°17' W 000°15'1 1.5
2018-Sep-17 12:30N 49°18' W 000°15'818.2
2018-Sep-17 12:03N 49°26' W 000°17'119.7
2018-Sep-17 12:00N 49°27' W 000°17'1019.9
2018-Sep-17 11:30N 49°37' W 000°22'919.9
2018-Sep-17 11:03N 49°45' W 000°26'120.0
2018-Sep-17 11:00N 49°46' W 000°26'1019.9
2018-Sep-17 10:30N 49°55' W 000°33'919.5
2018-Sep-17 10:03N 50°03' W 000°38'119.2
2018-Sep-17 10:00N 50°04' W 000°39'1019.2
2018-Sep-17 09:30N 50°13' W 000°44'919.2
2018-Sep-17 09:03N 50°22' W 000°47'119.4
2018-Sep-17 09:00N 50°22' W 000°48'1019.3
2018-Sep-17 08:30N 50°31' W 000°54'919.1
2018-Sep-17 08:03N 50°39' W 000°59'118.5
2018-Sep-17 08:00N 50°40' W 000°59'816.5
2018-Sep-17 07:30N 50°47' W 001°06'2 3.7
2018-Sep-17 07:03N 50°49' W 001°06'0 0.0
2018-Sep-17 07:00N 50°49' W 001°06'0 0.0
2018-Sep-17 06:30N 50°49' W 001°06'0 0.0
2018-Sep-17 06:03N 50°49' W 001°06'0 0.0
2018-Sep-17 06:00N 50°49' W 001°06'0 0.2
2018-Sep-17 05:30N 50°49' W 001°06'4 8.4
2018-Sep-17 05:04N 50°45' W 001°05'119.6
2018-Sep-17 05:01N 50°44' W 001°04'816.4
2018-Sep-17 04:30N 50°37' W 000°58'716.1
2018-Sep-17 04:03N 50°30' W 000°54'116.0
2018-Sep-17 04:01N 50°30' W 000°53'815.8
2018-Sep-17 03:30N 50°22' W 000°49'715.9
2018-Sep-17 03:03N 50°15' W 000°45'115.7
2018-Sep-17 03:00N 50°15' W 000°45'611.2
2018-Sep-17 02:30N 50°09' W 000°42'510.2
2018-Sep-17 02:03N 50°05' W 000°39'110.2
2018-Sep-17 02:00N 50°05' W 000°39'510.1
2018-Sep-17 01:30N 49°60' W 000°36'510.0
2018-Sep-17 01:03N 49°56' W 000°34'0 9.9
2018-Sep-17 01:00N 49°55' W 000°33'510.0
2018-Sep-17 00:30N 49°50' W 000°31'4 9.9
2018-Sep-17 00:04N 49°46' W 000°28'1 9.9
2018-Sep-17 00:00N 49°46' W 000°28'510.1
2018-Sep-16 23:30N 49°41' W 000°25'510.2
2018-Sep-16 23:03N 49°37' W 000°22'110.3
2018-Sep-16 23:00N 49°36' W 000°22'510.4
2018-Sep-16 22:30N 49°31' W 000°20'510.7
2018-Sep-16 22:03N 49°27' W 000°18'110.7
2018-Sep-16 22:00N 49°26' W 000°17'510.8
2018-Sep-16 21:30N 49°21' W 000°15'4 8.8
2018-Sep-16 21:03N 49°17' W 000°15'0 1.0
2018-Sep-16 21:00N 49°17' W 000°15'0 0.0
2018-Sep-16 20:30N 49°17' W 000°15'0 0.0
2018-Sep-16 20:03N 49°17' W 000°15'0 0.0
2018-Sep-16 20:00N 49°17' W 000°15'0 0.0
2018-Sep-16 19:30N 49°17' W 000°15'2 4.7
2018-Sep-16 19:03N 49°19' W 000°15'117.0
2018-Sep-16 19:00N 49°20' W 000°14'917.7
2018-Sep-16 18:30N 49°29' W 000°19'817.8
2018-Sep-16 18:03N 49°36' W 000°25'118.3
2018-Sep-16 18:00N 49°37' W 000°25'918.2
2018-Sep-16 17:30N 49°46' W 000°28'818.3
2018-Sep-16 17:03N 49°53' W 000°32'118.5
2018-Sep-16 17:00N 49°54' W 000°33'918.6
2018-Sep-16 16:30N 50°03' W 000°38'818.7
2018-Sep-16 16:03N 50°11' W 000°42'119.2
2018-Sep-16 16:01N 50°12' W 000°43'918.9
2018-Sep-16 15:30N 50°21' W 000°48'919.1
2018-Sep-16 15:02N 50°29' W 000°53'119.0
2018-Sep-16 15:00N 50°30' W 000°54'918.8
2018-Sep-16 14:30N 50°38' W 000°59'1111.4
2018-Sep-16 13:30N 50°49' W 001°06'0 0.0
2018-Sep-16 13:03N 50°49' W 001°06'0 0.0
2018-Sep-16 13:00N 50°49' W 001°06'0 0.0
2018-Sep-16 12:30N 50°49' W 001°06'0 0.2
2018-Sep-16 12:04N 50°49' W 001°06'0 3.7
2018-Sep-16 12:00N 50°49' W 001°06'611.5
2018-Sep-16 11:31N 50°44' W 001°02'818.0
2018-Sep-16 11:03N 50°36' W 000°57'119.4
2018-Sep-16 11:00N 50°35' W 000°56'1019.1
2018-Sep-16 10:31N 50°26' W 000°51'919.6
2018-Sep-16 10:04N 50°18' W 000°46'119.8
2018-Sep-16 10:00N 50°17' W 000°45'1019.6
2018-Sep-16 09:31N 50°08' W 000°41'919.9
2018-Sep-16 09:03N 49°59' W 000°37'120.1
2018-Sep-16 09:01N 49°58' W 000°36'1020.0
2018-Sep-16 08:30N 49°49' W 000°30'920.2
2018-Sep-16 08:04N 49°41' W 000°25'120.3
2018-Sep-16 08:00N 49°40' W 000°24'1020.0
2018-Sep-16 07:30N 49°31' W 000°18'919.8
2018-Sep-16 07:03N 49°22' W 000°15'118.5
2018-Sep-16 07:00N 49°21' W 000°15'4 7.4
2018-Sep-16 06:31N 49°17' W 000°15'0 0.0
2018-Sep-16 06:04N 49°17' W 000°15'0 0.0
2018-Sep-16 06:01N 49°17' W 000°15'0 0.0
2018-Sep-16 05:30N 49°17' W 000°15'0 0.0
2018-Sep-16 05:04N 49°17' W 000°15'0 0.0
2018-Sep-16 05:00N 49°17' W 000°15'0 0.3
2018-Sep-16 04:31N 49°17' W 000°15'613.1
2018-Sep-16 04:04N 49°23' W 000°15'114.6
2018-Sep-16 04:01N 49°24' W 000°15'714.6
2018-Sep-16 03:30N 49°30' W 000°20'714.7
2018-Sep-16 03:03N 49°36' W 000°25'114.8
2018-Sep-16 03:00N 49°37' W 000°26'714.8
2018-Sep-16 02:30N 49°44' W 000°28'715.1
2018-Sep-16 02:03N 49°50' W 000°32'115.2
2018-Sep-16 02:01N 49°51' W 000°32'815.5
2018-Sep-16 01:31N 49°58' W 000°36'715.5
2018-Sep-16 01:04N 50°05' W 000°40'115.5
2018-Sep-16 01:00N 50°06' W 000°40'815.5
2018-Sep-16 00:30N 50°13' W 000°45'715.5
2018-Sep-16 00:03N 50°20' W 000°48'115.6
2018-Sep-16 00:00N 50°20' W 000°48'815.3
2018-Sep-15 23:30N 50°28' W 000°52'715.7
2018-Sep-15 23:04N 50°34' W 000°55'115.6
2018-Sep-15 23:01N 50°35' W 000°56'815.1
2018-Sep-15 22:30N 50°42' W 000°59'613.9
2018-Sep-15 22:03N 50°47' W 001°06'0 9.9
2018-Sep-15 22:00N 50°47' W 001°07'1 2.9
2018-Sep-15 21:31N 50°49' W 001°06'0 0.0
2018-Sep-15 21:03N 50°49' W 001°06'0 0.0
2018-Sep-15 21:01N 50°49' W 001°06'0 0.0
2018-Sep-15 20:31N 50°49' W 001°06'0 0.2
2018-Sep-15 20:04N 50°49' W 001°06'0 5.5
2018-Sep-15 20:01N 50°49' W 001°06'611.3
2018-Sep-15 19:31N 50°44' W 001°03'715.4
2018-Sep-15 19:03N 50°37' W 000°57'118.5
2018-Sep-15 19:00N 50°37' W 000°57'1019.0
2018-Sep-15 18:30N 50°28' W 000°52'818.9
2018-Sep-15 18:04N 50°20' W 000°47'118.3
2018-Sep-15 18:01N 50°19' W 000°47'1019.2
2018-Sep-15 17:30N 50°10' W 000°42'919.6
2018-Sep-15 17:03N 50°01' W 000°37'119.7
2018-Sep-15 17:00N 50°01' W 000°36'1019.7
2018-Sep-15 16:30N 49°51' W 000°31'919.7
2018-Sep-15 16:03N 49°43' W 000°26'119.7
2018-Sep-15 16:01N 49°42' W 000°26'1019.5
2018-Sep-15 15:30N 49°33' W 000°20'919.4
2018-Sep-15 15:03N 49°25' W 000°16'713.6
2018-Sep-15 14:30N 49°17' W 000°15'0 0.0
2018-Sep-15 14:00N 49°17' W 000°15'0 0.0
2018-Sep-15 13:30N 49°17' W 000°15'0 0.0
2018-Sep-15 13:03N 49°17' W 000°15'0 0.0
2018-Sep-15 13:00N 49°17' W 000°15'2 3.4
2018-Sep-15 12:30N 49°19' W 000°15'919.2
2018-Sep-15 12:03N 49°28' W 000°16'120.3
2018-Sep-15 12:00N 49°29' W 000°16'918.8
2018-Sep-15 11:30N 49°37' W 000°22'919.4
2018-Sep-15 11:03N 49°45' W 000°28'119.9
2018-Sep-15 11:00N 49°46' W 000°28'1019.9
2018-Sep-15 10:30N 49°55' W 000°33'919.9
2018-Sep-15 10:03N 50°04' W 000°38'119.7
2018-Sep-15 10:00N 50°05' W 000°39'3119.7
2018-Sep-15 08:26N 50°34' W 000°55'719.1
2018-Sep-15 08:03N 50°41' W 000°58'117.9
2018-Sep-15 08:00N 50°42' W 000°58'815.8
2018-Sep-15 07:30N 50°47' W 001°07'2 3.3
2018-Sep-15 07:03N 50°49' W 001°06'0 0.0
2018-Sep-15 07:00N 50°49' W 001°06'0 0.0
2018-Sep-15 06:30N 50°49' W 001°06'0 0.0
2018-Sep-15 06:03N 50°49' W 001°06'0 0.0
2018-Sep-15 06:00N 50°49' W 001°06'0 0.4
2018-Sep-15 05:30N 50°49' W 001°06'510.5
2018-Sep-15 05:03N 50°44' W 001°04'118.9
2018-Sep-15 05:00N 50°44' W 001°03'816.5
2018-Sep-15 04:30N 50°37' W 000°56'714.6
2018-Sep-15 04:03N 50°30' W 000°53'114.5
2018-Sep-15 03:58N 50°29' W 000°53'2915.2
2018-Sep-15 02:05N 50°02' W 000°38'215.1
2018-Sep-15 01:59N 50°01' W 000°37'610.4
2018-Sep-15 01:22N 49°55' W 000°33'310.1
2018-Sep-15 01:04N 49°52' W 000°31'110.1
2018-Sep-15 01:01N 49°52' W 000°31'510.1
2018-Sep-15 00:31N 49°47' W 000°28'510.4
2018-Sep-15 00:04N 49°42' W 000°26'110.4
2018-Sep-15 00:01N 49°42' W 000°26'510.5
2018-Sep-14 23:30N 49°37' W 000°23'510.4
2018-Sep-14 23:04N 49°33' W 000°21'110.3
2018-Sep-14 23:00N 49°32' W 000°20'510.0
2018-Sep-14 22:30N 49°27' W 000°18'510.1
2018-Sep-14 22:04N 49°23' W 000°15'110.3
2018-Sep-14 22:01N 49°23' W 000°15'510.5
2018-Sep-14 21:30N 49°17' W 000°15'  
Track history (hours):
 
Tides and Currents Weather Stations Pressure Air Temp Water Temp Dewpoint Dewpoint Depression Visibility Wind Speed Wind Dir Waves Ship Positions

Normandie

Operator: Brittany Ferries

Last reported at 2018-Sep-24 21:30 UTC. Time now 2018-Sep-24 21:39 UTC.
Position N 50°49' W 001°06'.

Length 161 m; beam 27 m.

Type: Passenger vessel. MMSI: 227273000.

Date/timePositionNaut miles runAvg speedWind from/ knotsBaromVisibWave heightAir tempDewpointWater temp
2018-Sep-24 21:30N 50°49' W 001°06'0 0.0
2018-Sep-24 21:03N 50°49' W 001°06'0 0.0
2018-Sep-24 21:01N 50°49' W 001°06'0 0.0
2018-Sep-24 20:31N 50°49' W 001°06'1 1.2
2018-Sep-24 20:03N 50°49' W 001°07'0 8.5
2018-Sep-24 20:01N 50°48' W 001°07'714.3
2018-Sep-24 19:30N 50°42' W 001°01'818.2
2018-Sep-24 19:03N 50°35' W 000°56'118.3
2018-Sep-24 19:00N 50°34' W 000°55'2818.5
2018-Sep-24 17:28N 50°07' W 000°38'818.8
2018-Sep-24 17:03N 50°00' W 000°34'119.1
2018-Sep-24 17:00N 49°59' W 000°33'918.8
2018-Sep-24 16:30N 49°51' W 000°28'919.0
2018-Sep-24 16:01N 49°41' W 000°26'019.2
2018-Sep-24 16:00N 49°41' W 000°25'1019.6
2018-Sep-24 15:30N 49°32' W 000°20'919.5
2018-Sep-24 15:03N 49°24' W 000°16'119.4
2018-Sep-24 15:00N 49°23' W 000°16'510.8
2018-Sep-24 14:30N 49°17' W 000°15'0 0.0
2018-Sep-24 14:00N 49°17' W 000°15'0 0.0
2018-Sep-24 13:30N 49°17' W 000°15'0 0.0
2018-Sep-24 13:03N 49°17' W 000°15'0 0.0
2018-Sep-24 13:00N 49°17' W 000°15'510.1
2018-Sep-24 12:31N 49°22' W 000°14'818.4
2018-Sep-24 12:04N 49°30' W 000°16'118.7
2018-Sep-24 12:01N 49°31' W 000°17'918.3
2018-Sep-24 11:30N 49°40' W 000°21'817.3
2018-Sep-24 11:03N 49°47' W 000°26'117.5
2018-Sep-24 11:00N 49°48' W 000°26'917.7
2018-Sep-24 10:31N 49°56' W 000°32'817.9
2018-Sep-24 10:03N 50°04' W 000°37'117.8
2018-Sep-24 10:00N 50°04' W 000°37'3119.1
2018-Sep-24 08:24N 50°33' W 000°55'619.1
2018-Sep-24 08:04N 50°39' W 000°59'119.1
2018-Sep-24 08:01N 50°40' W 000°59'917.2
2018-Sep-24 07:30N 50°47' W 001°07'2 3.5
2018-Sep-24 07:03N 50°49' W 001°06'0 0.0
2018-Sep-24 07:00N 50°49' W 001°06'0 0.0
2018-Sep-24 06:30N 50°49' W 001°06'0 0.0
2018-Sep-24 06:03N 50°49' W 001°06'0 0.0
2018-Sep-24 06:00N 50°49' W 001°06'1 1.3
2018-Sep-24 05:30N 50°48' W 001°07'511.7
2018-Sep-24 05:03N 50°44' W 001°03'117.8
2018-Sep-24 05:00N 50°43' W 001°02'815.6
2018-Sep-24 04:30N 50°36' W 000°57'614.4
2018-Sep-24 04:03N 50°30' W 000°53'114.7
2018-Sep-24 04:00N 50°30' W 000°53'2914.7
2018-Sep-24 02:02N 50°03' W 000°36'115.1
2018-Sep-24 02:00N 50°02' W 000°35'715.0
2018-Sep-24 01:30N 49°55' W 000°31'613.0
2018-Sep-24 01:03N 49°50' W 000°29'110.3
2018-Sep-24 01:00N 49°49' W 000°29'510.3
2018-Sep-24 00:30N 49°44' W 000°28'510.6
2018-Sep-24 00:03N 49°39' W 000°26'010.5
2018-Sep-24 00:00N 49°39' W 000°26'510.2
2018-Sep-23 23:30N 49°34' W 000°24'510.0
2018-Sep-23 23:03N 49°30' W 000°21'1 9.9
2018-Sep-23 23:00N 49°29' W 000°21'5 9.8
2018-Sep-23 22:30N 49°25' W 000°17'4 9.7
2018-Sep-23 22:03N 49°21' W 000°15'1 9.5
2018-Sep-23 22:00N 49°21' W 000°15'3 6.4
2018-Sep-23 21:30N 49°17' W 000°15'0 0.0
2018-Sep-23 21:03N 49°17' W 000°15'0 0.0
2018-Sep-23 21:00N 49°17' W 000°15'0 0.0
2018-Sep-23 20:30N 49°17' W 000°15'0 0.0
2018-Sep-23 20:03N 49°17' W 000°15'0 0.0
2018-Sep-23 20:00N 49°17' W 000°15'0 0.0
2018-Sep-23 19:31N 49°17' W 000°15'4 9.6
2018-Sep-23 19:03N 49°22' W 000°14'119.7
2018-Sep-23 19:00N 49°23' W 000°14'1020.0
2018-Sep-23 18:30N 49°32' W 000°18'919.9
2018-Sep-23 18:03N 49°41' W 000°21'119.8
2018-Sep-23 18:00N 49°42' W 000°22'1019.9
2018-Sep-23 17:30N 49°51' W 000°26'919.7
2018-Sep-23 17:03N 49°59' W 000°33'119.5
2018-Sep-23 17:00N 50°00' W 000°34'919.3
2018-Sep-23 16:30N 50°09' W 000°39'2619.1
2018-Sep-23 15:09N 50°33' W 000°55'319.1
2018-Sep-23 14:59N 50°36' W 000°57'817.5
2018-Sep-23 14:30N 50°44' W 001°02'6 5.6
2018-Sep-23 13:30N 50°49' W 001°06'0 0.0
2018-Sep-23 13:03N 50°49' W 001°06'0 0.0
2018-Sep-23 13:00N 50°49' W 001°06'0 0.0
2018-Sep-23 12:30N 50°49' W 001°06'0 0.2
2018-Sep-23 12:04N 50°49' W 001°06'0 5.0
2018-Sep-23 12:00N 50°49' W 001°06'612.3
2018-Sep-23 11:31N 50°43' W 001°02'818.4
2018-Sep-23 11:03N 50°36' W 000°57'119.2
2018-Sep-23 11:01N 50°35' W 000°56'2818.7
2018-Sep-23 09:32N 50°09' W 000°39'118.4
2018-Sep-23 09:29N 50°09' W 000°39'717.6
2018-Sep-23 09:03N 50°01' W 000°36'116.6
2018-Sep-23 09:01N 50°00' W 000°36'917.6
2018-Sep-23 08:31N 49°52' W 000°31'818.3
2018-Sep-23 08:03N 49°44' W 000°28'118.4
2018-Sep-23 08:01N 49°43' W 000°27'918.3
2018-Sep-23 07:31N 49°35' W 000°22'818.2
2018-Sep-23 07:04N 49°27' W 000°17'118.1
2018-Sep-23 07:00N 49°26' W 000°17'917.4
2018-Sep-23 06:30N 49°18' W 000°15'1 1.2
2018-Sep-23 06:03N 49°17' W 000°15'0 0.0
2018-Sep-23 06:00N 49°17' W 000°15'0 0.0
2018-Sep-23 05:30N 49°17' W 000°15'0 0.0
2018-Sep-23 05:03N 49°17' W 000°15'0 0.0
2018-Sep-23 05:00N 49°17' W 000°15'0 0.2
2018-Sep-23 04:30N 49°17' W 000°15'715.2
2018-Sep-23 04:04N 49°24' W 000°13'113.4
2018-Sep-23 04:01N 49°25' W 000°13'611.4
2018-Sep-23 03:30N 49°30' W 000°17'614.0
2018-Sep-23 03:03N 49°36' W 000°20'113.9
2018-Sep-23 03:00N 49°37' W 000°20'713.9
2018-Sep-23 02:30N 49°43' W 000°24'614.3
2018-Sep-23 02:04N 49°49' W 000°28'114.1
2018-Sep-23 02:01N 49°50' W 000°28'713.9
2018-Sep-23 01:30N 49°56' W 000°33'613.9
2018-Sep-23 01:03N 50°01' W 000°37'113.9
2018-Sep-23 01:00N 50°02' W 000°38'3014.5
2018-Sep-22 22:55N 50°31' W 000°54'615.0
2018-Sep-22 22:30N 50°36' W 000°58'715.1
2018-Sep-22 22:03N 50°42' W 001°02'114.0
2018-Sep-22 22:00N 50°43' W 001°03'612.1
2018-Sep-22 21:30N 50°49' W 001°06'0 0.8
2018-Sep-22 21:04N 50°49' W 001°06'0 0.0
2018-Sep-22 21:01N 50°49' W 001°06'0 0.0
2018-Sep-22 20:31N 50°49' W 001°06'0 0.4
2018-Sep-22 20:04N 50°49' W 001°06'0 6.0
2018-Sep-22 20:00N 50°49' W 001°07'713.5
2018-Sep-22 19:30N 50°42' W 001°02'918.9
2018-Sep-22 19:03N 50°35' W 000°56'119.3
2018-Sep-22 19:00N 50°34' W 000°56'2818.9
2018-Sep-22 17:30N 50°07' W 000°40'819.0
2018-Sep-22 17:03N 49°59' W 000°38'118.9
2018-Sep-22 17:00N 49°58' W 000°37'919.0
2018-Sep-22 16:30N 49°49' W 000°33'818.9
2018-Sep-22 16:03N 49°41' W 000°27'119.0
2018-Sep-22 16:00N 49°41' W 000°27'1019.2
2018-Sep-22 15:30N 49°32' W 000°21'920.0
2018-Sep-22 15:03N 49°23' W 000°16'119.1
2018-Sep-22 15:00N 49°22' W 000°16'5 5.3
2018-Sep-22 14:03N 49°17' W 000°15'0 0.0
2018-Sep-22 14:00N 49°17' W 000°15'0 0.0
2018-Sep-22 13:30N 49°17' W 000°15'0 0.0
2018-Sep-22 13:03N 49°17' W 000°15'0 0.0
2018-Sep-22 13:00N 49°17' W 000°15'510.3
2018-Sep-22 12:30N 49°22' W 000°14'818.8
2018-Sep-22 12:03N 49°31' W 000°17'118.9
2018-Sep-22 12:00N 49°32' W 000°17'917.5
2018-Sep-22 11:30N 49°40' W 000°22'817.6
2018-Sep-22 11:03N 49°47' W 000°27'117.7
2018-Sep-22 11:00N 49°48' W 000°27'917.9
2018-Sep-22 10:30N 49°56' W 000°32'818.0
2018-Sep-22 10:03N 50°04' W 000°37'118.0
2018-Sep-22 10:00N 50°05' W 000°37'2718.8
2018-Sep-22 08:34N 50°30' W 000°53'219.7
2018-Sep-22 08:28N 50°32' W 000°54'819.6
2018-Sep-22 08:03N 50°39' W 000°59'118.8
2018-Sep-22 08:00N 50°40' W 000°59'917.0
2018-Sep-22 07:30N 50°47' W 001°07'2 3.4
2018-Sep-22 07:03N 50°49' W 001°06'0 0.0
2018-Sep-22 07:00N 50°49' W 001°06'0 0.0
2018-Sep-22 06:30N 50°49' W 001°06'0 0.0
2018-Sep-22 06:03N 50°49' W 001°06'0 0.0
2018-Sep-22 06:00N 50°49' W 001°06'0 0.4
2018-Sep-22 05:30N 50°49' W 001°06'510.9
2018-Sep-22 05:03N 50°44' W 001°04'117.4
2018-Sep-22 05:01N 50°44' W 001°03'917.2
2018-Sep-22 04:30N 50°36' W 000°57'815.2
2018-Sep-22 04:00N 50°29' W 000°53'2711.4
2018-Sep-22 01:38N 50°03' W 000°38'110.7
2018-Sep-22 01:30N 50°02' W 000°37'510.5
2018-Sep-22 01:03N 49°58' W 000°34'110.6
2018-Sep-22 01:01N 49°57' W 000°33'510.5
2018-Sep-22 00:30N 49°52' W 000°30'510.4
2018-Sep-22 00:04N 49°48' W 000°29'110.5
2018-Sep-22 00:01N 49°47' W 000°28'510.6
2018-Sep-21 23:30N 49°42' W 000°26'510.6
2018-Sep-21 23:03N 49°38' W 000°23'010.5
2018-Sep-21 23:01N 49°38' W 000°23'510.5
2018-Sep-21 22:30N 49°32' W 000°20'510.6
2018-Sep-21 22:04N 49°28' W 000°18'110.7
2018-Sep-21 22:01N 49°27' W 000°18'510.9
2018-Sep-21 21:30N 49°22' W 000°15'511.0
2018-Sep-21 21:03N 49°17' W 000°15'0 0.8
2018-Sep-21 21:00N 49°17' W 000°15'0 0.0
2018-Sep-21 20:30N 49°17' W 000°15'0 0.0
2018-Sep-21 20:03N 49°17' W 000°15'0 0.0
2018-Sep-21 20:00N 49°17' W 000°15'0 0.0
2018-Sep-21 19:30N 49°17' W 000°15'3 6.7
2018-Sep-21 19:03N 49°20' W 000°14'118.9
2018-Sep-21 19:00N 49°21' W 000°14'1019.5
2018-Sep-21 18:30N 49°31' W 000°18'817.6
2018-Sep-21 18:03N 49°38' W 000°22'117.7
2018-Sep-21 18:00N 49°39' W 000°23'917.8
2018-Sep-21 17:30N 49°47' W 000°27'818.0
2018-Sep-21 17:03N 49°55' W 000°31'117.9
2018-Sep-21 17:00N 49°56' W 000°32'917.9
2018-Sep-21 16:30N 50°04' W 000°37'3017.7
2018-Sep-21 14:49N 50°32' W 000°54'617.7
2018-Sep-21 14:30N 50°37' W 000°57'1312.7
2018-Sep-21 13:31N 50°49' W 001°06'0 0.0
2018-Sep-21 13:04N 50°49' W 001°06'0 0.0
2018-Sep-21 13:01N 50°49' W 001°06'0 0.0
2018-Sep-21 12:30N 50°49' W 001°06'1 3.0
2018-Sep-21 12:03N 50°47' W 001°07'0 8.1
2018-Sep-21 12:01N 50°47' W 001°06'815.1
2018-Sep-21 11:31N 50°41' W 001°00'919.2
2018-Sep-21 11:04N 50°33' W 000°56'119.5
2018-Sep-21 11:00N 50°32' W 000°55'2519.0
2018-Sep-21 09:41N 50°08' W 000°40'418.9
2018-Sep-21 09:30N 50°05' W 000°38'818.8
2018-Sep-21 09:04N 49°57' W 000°35'118.5
2018-Sep-21 09:01N 49°56' W 000°34'918.3
2018-Sep-21 08:31N 49°48' W 000°30'818.4
2018-Sep-21 08:03N 49°40' W 000°25'118.3
2018-Sep-21 08:00N 49°39' W 000°25'918.4
2018-Sep-21 07:30N 49°30' W 000°20'818.6
2018-Sep-21 07:03N 49°22' W 000°15'118.4
2018-Sep-21 07:00N 49°22' W 000°15'4 8.4
2018-Sep-21 06:30N 49°17' W 000°15'0 0.0
2018-Sep-21 06:03N 49°17' W 000°15'0 0.0
2018-Sep-21 06:00N 49°17' W 000°15'0 0.0
2018-Sep-21 05:30N 49°17' W 000°15'0 0.0
2018-Sep-21 05:03N 49°17' W 000°15'0 0.0
2018-Sep-21 05:00N 49°17' W 000°15'0 0.3
2018-Sep-21 04:31N 49°17' W 000°15'715.3
2018-Sep-21 04:03N 49°24' W 000°14'118.9
2018-Sep-21 04:01N 49°25' W 000°15'1019.1
2018-Sep-21 03:31N 49°34' W 000°19'919.1
2018-Sep-21 03:03N 49°43' W 000°22'119.5
2018-Sep-21 03:01N 49°44' W 000°22'917.4
2018-Sep-21 02:31N 49°51' W 000°29'817.5
2018-Sep-21 02:03N 49°57' W 000°36'117.1
2018-Sep-21 02:01N 49°58' W 000°37'917.2
2018-Sep-21 01:30N 50°05' W 000°44'816.9
2018-Sep-21 01:03N 50°12' W 000°51'116.5
2018-Sep-21 01:00N 50°12' W 000°51'1216.0
2018-Sep-21 00:14N 50°22' W 001°04'315.9
2018-Sep-21 00:03N 50°24' W 001°07'115.9
2018-Sep-21 00:00N 50°24' W 001°08'813.7
2018-Sep-20 23:23N 50°32' W 001°12'412.1
2018-Sep-20 23:03N 50°36' W 001°08'115.2
2018-Sep-20 23:00N 50°36' W 001°07'713.6
2018-Sep-20 22:31N 50°42' W 001°01'613.3
2018-Sep-20 22:04N 50°47' W 001°06'112.4
2018-Sep-20 22:01N 50°47' W 001°07'1 2.9
2018-Sep-20 21:31N 50°49' W 001°06'0 0.0
2018-Sep-20 21:04N 50°49' W 001°06'0 0.0
2018-Sep-20 21:01N 50°49' W 001°06'0 0.0
2018-Sep-20 20:31N 50°49' W 001°06'0 0.2
2018-Sep-20 20:04N 50°49' W 001°06'0 5.3
2018-Sep-20 20:01N 50°49' W 001°06'612.9
2018-Sep-20 19:31N 50°43' W 001°02'919.0
2018-Sep-20 19:03N 50°35' W 000°56'119.5
2018-Sep-20 19:00N 50°34' W 000°55'2519.3
2018-Sep-20 17:43N 50°11' W 000°40'419.0
2018-Sep-20 17:30N 50°08' W 000°38'818.9
2018-Sep-20 17:03N 49°60' W 000°33'118.8
2018-Sep-20 17:00N 49°59' W 000°33'1019.1
2018-Sep-20 16:30N 49°50' W 000°28'919.1
2018-Sep-20 16:03N 49°42' W 000°24'119.0
2018-Sep-20 16:00N 49°41' W 000°24'1019.2
2018-Sep-20 15:30N 49°31' W 000°20'919.0
2018-Sep-20 15:03N 49°23' W 000°16'118.5
2018-Sep-20 15:00N 49°22' W 000°15'5 5.3
2018-Sep-20 14:03N 49°17' W 000°15'0 0.0
2018-Sep-20 14:00N 49°17' W 000°15'0 0.0
2018-Sep-20 13:30N 49°17' W 000°15'0 0.0
2018-Sep-20 13:03N 49°17' W 000°15'0 0.0
2018-Sep-20 13:00N 49°17' W 000°15'0 0.0
2018-Sep-20 12:30N 49°17' W 000°15'0 0.0
2018-Sep-20 12:03N 49°17' W 000°15'0 0.3
2018-Sep-20 12:00N 49°17' W 000°15'510.4
2018-Sep-20 11:30N 49°23' W 000°15'715.5
2018-Sep-20 11:03N 49°29' W 000°18'112.9
2018-Sep-20 11:00N 49°29' W 000°19'1 2.4
2018-Sep-20 10:30N 49°28' W 000°20'1 1.3
2018-Sep-20 10:03N 49°28' W 000°20'0 1.6
2018-Sep-20 10:00N 49°28' W 000°21'1 1.6
2018-Sep-20 09:30N 49°28' W 000°22'1 1.6
2018-Sep-20 09:03N 49°28' W 000°23'0 1.7
2018-Sep-20 09:00N 49°28' W 000°23'1 1.7
2018-Sep-20 08:30N 49°27' W 000°24'1 1.8
2018-Sep-20 08:03N 49°27' W 000°25'0 1.6
2018-Sep-20 08:00N 49°27' W 000°26'1 1.7
2018-Sep-20 07:30N 49°27' W 000°27'1 1.6
2018-Sep-20 07:03N 49°26' W 000°28'0 1.5
2018-Sep-20 07:00N 49°26' W 000°28'1 1.4
2018-Sep-20 06:30N 49°26' W 000°28'0 0.9
2018-Sep-20 06:03N 49°25' W 000°29'0 0.5
2018-Sep-20 06:00N 49°25' W 000°29'5 9.6
2018-Sep-20 05:30N 49°24' W 000°22'511.8
2018-Sep-20 05:03N 49°21' W 000°15'010.0
2018-Sep-20 05:00N 49°20' W 000°15'3 6.2
2018-Sep-20 04:30N 49°17' W 000°15'0 0.0
2018-Sep-20 04:03N 49°17' W 000°15'0 0.0
2018-Sep-20 04:00N 49°17' W 000°15'0 0.0
2018-Sep-20 03:30N 49°17' W 000°15'0 0.0
2018-Sep-20 03:03N 49°17' W 000°15'0 0.0
2018-Sep-20 03:00N 49°17' W 000°15'0 0.0
2018-Sep-20 02:30N 49°17' W 000°15'0 0.0
2018-Sep-20 02:03N 49°17' W 000°15'0 0.0
2018-Sep-20 02:00N 49°17' W 000°15'0 0.0
2018-Sep-20 01:30N 49°17' W 000°15'0 0.0
2018-Sep-20 01:03N 49°17' W 000°15'0 0.0
2018-Sep-20 01:00N 49°17' W 000°15'0 0.0
2018-Sep-20 00:30N 49°17' W 000°15'0 0.0
2018-Sep-20 00:03N 49°17' W 000°15'0 0.0
2018-Sep-20 00:00N 49°17' W 000°15'0 0.0
2018-Sep-19 23:30N 49°17' W 000°15'0 0.0
2018-Sep-19 23:03N 49°17' W 000°15'0 0.0
2018-Sep-19 23:00N 49°17' W 000°15'0 0.0
2018-Sep-19 22:30N 49°17' W 000°15'0 0.0
2018-Sep-19 22:03N 49°17' W 000°15'0 0.0
2018-Sep-19 22:00N 49°17' W 000°15'0 0.0
2018-Sep-19 21:30N 49°17' W 000°15'0 0.0
2018-Sep-19 21:03N 49°17' W 000°15'0 0.0
2018-Sep-19 21:00N 49°17' W 000°15'0 0.0
2018-Sep-19 20:30N 49°17' W 000°15'0 0.0
2018-Sep-19 20:03N 49°17' W 000°15'0 0.0
2018-Sep-19 20:00N 49°17' W 000°15'0 0.0
2018-Sep-19 19:30N 49°17' W 000°15'0 0.0
2018-Sep-19 19:03N 49°17' W 000°15'0 0.0
2018-Sep-19 19:00N 49°17' W 000°15'0 0.0
2018-Sep-19 18:30N 49°17' W 000°15'0 0.0
2018-Sep-19 18:03N 49°17' W 000°15'0 0.0
2018-Sep-19 18:00N 49°17' W 000°15'0 0.0
2018-Sep-19 17:30N 49°17' W 000°15'0 0.0
2018-Sep-19 17:03N 49°17' W 000°15'0 0.0
2018-Sep-19 17:00N 49°17' W 000°15'0 0.0
2018-Sep-19 16:30N 49°17' W 000°15'0 0.0
2018-Sep-19 16:03N 49°17' W 000°15'0 0.0
2018-Sep-19 16:00N 49°17' W 000°15'0 0.0
2018-Sep-19 15:30N 49°17' W 000°15'0 0.0
2018-Sep-19 15:03N 49°17' W 000°15'0 0.0
2018-Sep-19 15:00N 49°17' W 000°15'0 0.0
2018-Sep-19 14:30N 49°17' W 000°15'0 0.0
2018-Sep-19 13:30N 49°17' W 000°15'0 0.0
2018-Sep-19 13:03N 49°17' W 000°15'0 0.0
2018-Sep-19 13:00N 49°17' W 000°15'4 8.4
2018-Sep-19 12:30N 49°22' W 000°14'816.8
2018-Sep-19 12:03N 49°29' W 000°18'118.8
2018-Sep-19 12:00N 49°29' W 000°19'918.6
2018-Sep-19 11:30N 49°37' W 000°26'818.4
2018-Sep-19 11:03N 49°45' W 000°31'118.5
2018-Sep-19 11:00N 49°46' W 000°31'918.3
2018-Sep-19 10:30N 49°55' W 000°33'818.1
2018-Sep-19 10:03N 50°03' W 000°38'117.9
2018-Sep-19 10:00N 50°03' W 000°38'2818.8
2018-Sep-19 08:32N 50°30' W 000°52'118.5
2018-Sep-19 08:28N 50°31' W 000°52'818.4
2018-Sep-19 08:03N 50°38' W 000°58'118.6
2018-Sep-19 08:00N 50°38' W 000°59'917.1
2018-Sep-19 07:30N 50°46' W 001°05'3 6.4
2018-Sep-19 07:03N 50°49' W 001°06'0 0.0
2018-Sep-19 07:01N 50°49' W 001°06'0 0.0
2018-Sep-19 06:30N 50°49' W 001°06'0 0.0
2018-Sep-19 06:04N 50°49' W 001°06'0 0.0
2018-Sep-19 06:01N 50°49' W 001°06'0 0.2
2018-Sep-19 05:30N 50°49' W 001°06'4 9.1
2018-Sep-19 05:03N 50°45' W 001°05'118.6
2018-Sep-19 05:00N 50°44' W 001°04'816.6
2018-Sep-19 04:31N 50°37' W 000°58'614.4
2018-Sep-19 04:04N 50°31' W 000°54'114.3
2018-Sep-19 03:59N 50°30' W 000°54'914.1
2018-Sep-19 03:23N 50°21' W 000°51'614.4
2018-Sep-19 03:00N 50°16' W 000°50'714.4
2018-Sep-19 02:29N 50°08' W 000°49'614.6
2018-Sep-19 02:03N 50°02' W 000°49'114.3
2018-Sep-19 02:00N 50°01' W 000°48'714.2
2018-Sep-19 01:31N 49°54' W 000°47'614.3
2018-Sep-19 01:03N 49°48' W 000°46'114.7
2018-Sep-19 01:01N 49°47' W 000°46'714.7
2018-Sep-19 00:30N 49°40' W 000°44'512.2
2018-Sep-19 00:03N 49°35' W 000°42'110.8
2018-Sep-19 00:00N 49°34' W 000°42'510.2
2018-Sep-18 23:30N 49°32' W 000°35'510.5
2018-Sep-18 23:03N 49°30' W 000°29'110.6
2018-Sep-18 23:00N 49°30' W 000°28'510.8
2018-Sep-18 22:31N 49°26' W 000°21'511.1
2018-Sep-18 22:03N 49°23' W 000°16'110.9
2018-Sep-18 22:00N 49°22' W 000°15'510.2
2018-Sep-18 21:30N 49°17' W 000°15'0 0.1
2018-Sep-18 21:03N 49°17' W 000°15'0 0.0
2018-Sep-18 21:00N 49°17' W 000°15'0 0.0
2018-Sep-18 20:31N 49°17' W 000°15'0 0.0
2018-Sep-18 20:03N 49°17' W 000°15'0 0.0
2018-Sep-18 20:00N 49°17' W 000°15'4 8.1
2018-Sep-18 19:30N 49°21' W 000°14'919.0
2018-Sep-18 19:03N 49°30' W 000°17'119.3
2018-Sep-18 19:00N 49°31' W 000°17'1019.5
2018-Sep-18 18:30N 49°40' W 000°22'919.5
2018-Sep-18 18:03N 49°48' W 000°27'119.5
2018-Sep-18 18:00N 49°49' W 000°27'1019.6
2018-Sep-18 17:30N 49°58' W 000°33'716.6
2018-Sep-18 17:04N 50°05' W 000°38'117.4
2018-Sep-18 17:00N 50°06' W 000°38'918.0
2018-Sep-18 16:30N 50°14' W 000°44'2017.6
2018-Sep-18 15:21N 50°33' W 000°55'517.2
2018-Sep-18 15:03N 50°38' W 000°58'117.2
2018-Sep-18 15:00N 50°39' W 000°59'816.2
2018-Sep-18 14:31N 50°45' W 001°05'3 6.4
2018-Sep-18 14:00N 50°49' W 001°06'0 0.0
2018-Sep-18 13:30N 50°49' W 001°06'0 0.0
2018-Sep-18 13:03N 50°49' W 001°06'0 0.0
2018-Sep-18 13:00N 50°49' W 001°06'0 0.1
2018-Sep-18 12:30N 50°49' W 001°06'3 6.4
2018-Sep-18 12:04N 50°46' W 001°05'114.9
2018-Sep-18 12:01N 50°45' W 001°05'5 9.2
2018-Sep-18 11:30N 50°42' W 000°60'817.0
2018-Sep-18 11:03N 50°35' W 000°56'119.0
2018-Sep-18 11:00N 50°34' W 000°56'2819.2
2018-Sep-18 09:32N 50°08' W 000°39'119.4
2018-Sep-18 09:30N 50°07' W 000°38'919.5
2018-Sep-18 09:03N 49°59' W 000°34'119.7
2018-Sep-18 09:00N 49°58' W 000°33'1019.7
2018-Sep-18 08:30N 49°48' W 000°29'919.8
2018-Sep-18 08:03N 49°40' W 000°26'120.0
2018-Sep-18 08:00N 49°39' W 000°25'1019.9
2018-Sep-18 07:30N 49°30' W 000°19'919.7
2018-Sep-18 07:03N 49°21' W 000°15'118.8
2018-Sep-18 07:00N 49°20' W 000°15'3 6.1
2018-Sep-18 06:30N 49°17' W 000°15'0 0.0
2018-Sep-18 06:03N 49°17' W 000°15'0 0.0
2018-Sep-18 06:00N 49°17' W 000°15'0 0.0
2018-Sep-18 05:30N 49°17' W 000°15'0 0.0
2018-Sep-18 05:03N 49°17' W 000°15'0 0.0
2018-Sep-18 05:00N 49°17' W 000°15'0 0.3
2018-Sep-18 04:31N 49°17' W 000°15'715.5
2018-Sep-18 04:04N 49°24' W 000°15'119.1
2018-Sep-18 04:01N 49°25' W 000°16'917.7
2018-Sep-18 03:30N 49°33' W 000°22'614.5
2018-Sep-18 03:03N 49°39' W 000°26'114.4
2018-Sep-18 03:00N 49°40' W 000°27'714.6
2018-Sep-18 02:31N 49°46' W 000°31'714.8
2018-Sep-18 02:03N 49°52' W 000°35'115.2
2018-Sep-18 02:00N 49°53' W 000°35'714.8
2018-Sep-18 01:30N 49°60' W 000°40'815.3
2018-Sep-18 00:59N 50°07' W 000°46'714.6
2018-Sep-18 00:28N 50°14' W 000°48'614.6
2018-Sep-18 00:03N 50°20' W 000°49'315.0
2018-Sep-17 23:52N 50°23' W 000°50'615.3
2018-Sep-17 23:28N 50°29' W 000°53'615.3
2018-Sep-17 23:04N 50°35' W 000°56'115.5
2018-Sep-17 23:00N 50°35' W 000°57'715.1
2018-Sep-17 22:30N 50°42' W 001°01'613.1
2018-Sep-17 22:03N 50°47' W 001°07'110.1
2018-Sep-17 22:00N 50°48' W 001°07'1 2.2
2018-Sep-17 21:30N 50°49' W 001°06'0 0.0
2018-Sep-17 21:03N 50°49' W 001°06'0 0.0
2018-Sep-17 21:00N 50°49' W 001°06'0 0.0
2018-Sep-17 20:30N 50°49' W 001°06'0 1.0
2018-Sep-17 20:03N 50°49' W 001°07'0 8.5
2018-Sep-17 20:00N 50°48' W 001°07'5 9.0
2018-Sep-17 19:30N 50°44' W 001°04'817.7
2018-Sep-17 19:03N 50°37' W 000°58'119.6
2018-Sep-17 19:00N 50°36' W 000°57'1019.6
2018-Sep-17 18:30N 50°27' W 000°52'919.2
2018-Sep-17 18:03N 50°19' W 000°47'119.2
2018-Sep-17 18:00N 50°18' W 000°47'1019.5
2018-Sep-17 17:30N 50°09' W 000°41'919.8
2018-Sep-17 17:03N 50°01' W 000°36'119.0
2018-Sep-17 17:00N 49°60' W 000°35'1019.3
2018-Sep-17 16:30N 49°51' W 000°30'919.5
2018-Sep-17 16:03N 49°42' W 000°26'119.5
2018-Sep-17 16:00N 49°41' W 000°26'1019.4
2018-Sep-17 15:30N 49°32' W 000°21'919.1
2018-Sep-17 15:03N 49°24' W 000°16'119.1
2018-Sep-17 15:00N 49°23' W 000°16'612.2
2018-Sep-17 14:31N 49°17' W 000°15'0 0.0
2018-Sep-17 14:00N 49°17' W 000°15'0 0.0
2018-Sep-17 13:31N 49°17' W 000°15'0 0.0
2018-Sep-17 13:04N 49°17' W 000°15'0 0.0
2018-Sep-17 13:01N 49°17' W 000°15'1 1.5
2018-Sep-17 12:30N 49°18' W 000°15'818.2
2018-Sep-17 12:03N 49°26' W 000°17'119.7
2018-Sep-17 12:00N 49°27' W 000°17'1019.9
2018-Sep-17 11:30N 49°37' W 000°22'919.9
2018-Sep-17 11:03N 49°45' W 000°26'120.0
2018-Sep-17 11:00N 49°46' W 000°26'1019.9
2018-Sep-17 10:30N 49°55' W 000°33'919.5
2018-Sep-17 10:03N 50°03' W 000°38'119.2
2018-Sep-17 10:00N 50°04' W 000°39'1019.2
2018-Sep-17 09:30N 50°13' W 000°44'919.2
2018-Sep-17 09:03N 50°22' W 000°47'119.4
2018-Sep-17 09:00N 50°22' W 000°48'1019.3
2018-Sep-17 08:30N 50°31' W 000°54'919.1
2018-Sep-17 08:03N 50°39' W 000°59'118.5
2018-Sep-17 08:00N 50°40' W 000°59'816.5
2018-Sep-17 07:30N 50°47' W 001°06'2 3.7
2018-Sep-17 07:03N 50°49' W 001°06'0 0.0
2018-Sep-17 07:00N 50°49' W 001°06'0 0.0
2018-Sep-17 06:30N 50°49' W 001°06'0 0.0
2018-Sep-17 06:03N 50°49' W 001°06'0 0.0
2018-Sep-17 06:00N 50°49' W 001°06'0 0.2
2018-Sep-17 05:30N 50°49' W 001°06'4 8.4
2018-Sep-17 05:04N 50°45' W 001°05'119.6
2018-Sep-17 05:01N 50°44' W 001°04'816.4
2018-Sep-17 04:30N 50°37' W 000°58'716.1
2018-Sep-17 04:03N 50°30' W 000°54'116.0
2018-Sep-17 04:01N 50°30' W 000°53'815.8
2018-Sep-17 03:30N 50°22' W 000°49'715.9
2018-Sep-17 03:03N 50°15' W 000°45'115.7
2018-Sep-17 03:00N 50°15' W 000°45'611.2
2018-Sep-17 02:30N 50°09' W 000°42'510.2
2018-Sep-17 02:03N 50°05' W 000°39'110.2
2018-Sep-17 02:00N 50°05' W 000°39'510.1
2018-Sep-17 01:30N 49°60' W 000°36'510.0
2018-Sep-17 01:03N 49°56' W 000°34'0 9.9
2018-Sep-17 01:00N 49°55' W 000°33'510.0
2018-Sep-17 00:30N 49°50' W 000°31'4 9.9
2018-Sep-17 00:04N 49°46' W 000°28'1 9.9
2018-Sep-17 00:00N 49°46' W 000°28'510.1
2018-Sep-16 23:30N 49°41' W 000°25'510.2
2018-Sep-16 23:03N 49°37' W 000°22'110.3
2018-Sep-16 23:00N 49°36' W 000°22'510.4
2018-Sep-16 22:30N 49°31' W 000°20'510.7
2018-Sep-16 22:03N 49°27' W 000°18'110.7
2018-Sep-16 22:00N 49°26' W 000°17'510.8
2018-Sep-16 21:30N 49°21' W 000°15'4 8.8
2018-Sep-16 21:03N 49°17' W 000°15'0 1.0
2018-Sep-16 21:00N 49°17' W 000°15'0 0.0
2018-Sep-16 20:30N 49°17' W 000°15'0 0.0
2018-Sep-16 20:03N 49°17' W 000°15'0 0.0
2018-Sep-16 20:00N 49°17' W 000°15'0 0.0
2018-Sep-16 19:30N 49°17' W 000°15'2 4.7
2018-Sep-16 19:03N 49°19' W 000°15'117.0
2018-Sep-16 19:00N 49°20' W 000°14'917.7
2018-Sep-16 18:30N 49°29' W 000°19'817.8
2018-Sep-16 18:03N 49°36' W 000°25'118.3
2018-Sep-16 18:00N 49°37' W 000°25'918.2
2018-Sep-16 17:30N 49°46' W 000°28'818.3
2018-Sep-16 17:03N 49°53' W 000°32'118.5
2018-Sep-16 17:00N 49°54' W 000°33'918.6
2018-Sep-16 16:30N 50°03' W 000°38'818.7
2018-Sep-16 16:03N 50°11' W 000°42'119.2
2018-Sep-16 16:01N 50°12' W 000°43'918.9
2018-Sep-16 15:30N 50°21' W 000°48'919.1
2018-Sep-16 15:02N 50°29' W 000°53'119.0
2018-Sep-16 15:00N 50°30' W 000°54'918.8
2018-Sep-16 14:30N 50°38' W 000°59'1111.4
2018-Sep-16 13:30N 50°49' W 001°06'0 0.0
2018-Sep-16 13:03N 50°49' W 001°06'0 0.0
2018-Sep-16 13:00N 50°49' W 001°06'0 0.0
2018-Sep-16 12:30N 50°49' W 001°06'0 0.2
2018-Sep-16 12:04N 50°49' W 001°06'0 3.7
2018-Sep-16 12:00N 50°49' W 001°06'611.5
2018-Sep-16 11:31N 50°44' W 001°02'818.0
2018-Sep-16 11:03N 50°36' W 000°57'119.4
2018-Sep-16 11:00N 50°35' W 000°56'1019.1
2018-Sep-16 10:31N 50°26' W 000°51'919.6
2018-Sep-16 10:04N 50°18' W 000°46'119.8
2018-Sep-16 10:00N 50°17' W 000°45'1019.6
2018-Sep-16 09:31N 50°08' W 000°41'919.9
2018-Sep-16 09:03N 49°59' W 000°37'120.1
2018-Sep-16 09:01N 49°58' W 000°36'1020.0
2018-Sep-16 08:30N 49°49' W 000°30'920.2
2018-Sep-16 08:04N 49°41' W 000°25'120.3
2018-Sep-16 08:00N 49°40' W 000°24'1020.0
2018-Sep-16 07:30N 49°31' W 000°18'919.8
2018-Sep-16 07:03N 49°22' W 000°15'118.5
2018-Sep-16 07:00N 49°21' W 000°15'4 7.4
2018-Sep-16 06:31N 49°17' W 000°15'0 0.0
2018-Sep-16 06:04N 49°17' W 000°15'0 0.0
2018-Sep-16 06:01N 49°17' W 000°15'0 0.0
2018-Sep-16 05:30N 49°17' W 000°15'0 0.0
2018-Sep-16 05:04N 49°17' W 000°15'0 0.0
2018-Sep-16 05:00N 49°17' W 000°15'0 0.3
2018-Sep-16 04:31N 49°17' W 000°15'613.1
2018-Sep-16 04:04N 49°23' W 000°15'114.6
2018-Sep-16 04:01N 49°24' W 000°15'714.6
2018-Sep-16 03:30N 49°30' W 000°20'714.7
2018-Sep-16 03:03N 49°36' W 000°25'114.8
2018-Sep-16 03:00N 49°37' W 000°26'714.8
2018-Sep-16 02:30N 49°44' W 000°28'715.1
2018-Sep-16 02:03N 49°50' W 000°32'115.2
2018-Sep-16 02:01N 49°51' W 000°32'815.5
2018-Sep-16 01:31N 49°58' W 000°36'715.5
2018-Sep-16 01:04N 50°05' W 000°40'115.5
2018-Sep-16 01:00N 50°06' W 000°40'815.5
2018-Sep-16 00:30N 50°13' W 000°45'715.5
2018-Sep-16 00:03N 50°20' W 000°48'115.6
2018-Sep-16 00:00N 50°20' W 000°48'815.3
2018-Sep-15 23:30N 50°28' W 000°52'715.7
2018-Sep-15 23:04N 50°34' W 000°55'115.6
2018-Sep-15 23:01N 50°35' W 000°56'815.1
2018-Sep-15 22:30N 50°42' W 000°59'613.9
2018-Sep-15 22:03N 50°47' W 001°06'0 9.9
2018-Sep-15 22:00N 50°47' W 001°07'1 2.9
2018-Sep-15 21:31N 50°49' W 001°06'0 0.0
2018-Sep-15 21:03N 50°49' W 001°06'0 0.0
2018-Sep-15 21:01N 50°49' W 001°06'0 0.0
2018-Sep-15 20:31N 50°49' W 001°06'0 0.2
2018-Sep-15 20:04N 50°49' W 001°06'0 5.5
2018-Sep-15 20:01N 50°49' W 001°06'611.3
2018-Sep-15 19:31N 50°44' W 001°03'715.4
2018-Sep-15 19:03N 50°37' W 000°57'118.5
2018-Sep-15 19:00N 50°37' W 000°57'1019.0
2018-Sep-15 18:30N 50°28' W 000°52'818.9
2018-Sep-15 18:04N 50°20' W 000°47'118.3
2018-Sep-15 18:01N 50°19' W 000°47'1019.2
2018-Sep-15 17:30N 50°10' W 000°42'919.6
2018-Sep-15 17:03N 50°01' W 000°37'119.7
2018-Sep-15 17:00N 50°01' W 000°36'1019.7
2018-Sep-15 16:30N 49°51' W 000°31'919.7
2018-Sep-15 16:03N 49°43' W 000°26'119.7
2018-Sep-15 16:01N 49°42' W 000°26'1019.5
2018-Sep-15 15:30N 49°33' W 000°20'919.4
2018-Sep-15 15:03N 49°25' W 000°16'713.6
2018-Sep-15 14:30N 49°17' W 000°15'0 0.0
2018-Sep-15 14:00N 49°17' W 000°15'0 0.0
2018-Sep-15 13:30N 49°17' W 000°15'0 0.0
2018-Sep-15 13:03N 49°17' W 000°15'0 0.0
2018-Sep-15 13:00N 49°17' W 000°15'2 3.4
2018-Sep-15 12:30N 49°19' W 000°15'919.2
2018-Sep-15 12:03N 49°28' W 000°16'120.3
2018-Sep-15 12:00N 49°29' W 000°16'918.8
2018-Sep-15 11:30N 49°37' W 000°22'919.4
2018-Sep-15 11:03N 49°45' W 000°28'119.9
2018-Sep-15 11:00N 49°46' W 000°28'1019.9
2018-Sep-15 10:30N 49°55' W 000°33'919.9
2018-Sep-15 10:03N 50°04' W 000°38'119.7
2018-Sep-15 10:00N 50°05' W 000°39'3119.7
2018-Sep-15 08:26N 50°34' W 000°55'719.1
2018-Sep-15 08:03N 50°41' W 000°58'117.9
2018-Sep-15 08:00N 50°42' W 000°58'815.8
2018-Sep-15 07:30N 50°47' W 001°07'2 3.3
2018-Sep-15 07:03N 50°49' W 001°06'0 0.0
2018-Sep-15 07:00N 50°49' W 001°06'0 0.0
2018-Sep-15 06:30N 50°49' W 001°06'0 0.0
2018-Sep-15 06:03N 50°49' W 001°06'0 0.0
2018-Sep-15 06:00N 50°49' W 001°06'0 0.4
2018-Sep-15 05:30N 50°49' W 001°06'510.5
2018-Sep-15 05:03N 50°44' W 001°04'118.9
2018-Sep-15 05:00N 50°44' W 001°03'816.5
2018-Sep-15 04:30N 50°37' W 000°56'714.6
2018-Sep-15 04:03N 50°30' W 000°53'114.5
2018-Sep-15 03:58N 50°29' W 000°53'2915.2
2018-Sep-15 02:05N 50°02' W 000°38'215.1
2018-Sep-15 01:59N 50°01' W 000°37'610.4
2018-Sep-15 01:22N 49°55' W 000°33'310.1
2018-Sep-15 01:04N 49°52' W 000°31'110.1
2018-Sep-15 01:01N 49°52' W 000°31'510.1
2018-Sep-15 00:31N 49°47' W 000°28'510.4
2018-Sep-15 00:04N 49°42' W 000°26'110.4
2018-Sep-15 00:01N 49°42' W 000°26'510.5
2018-Sep-14 23:30N 49°37' W 000°23'510.4
2018-Sep-14 23:04N 49°33' W 000°21'110.3
2018-Sep-14 23:00N 49°32' W 000°20'510.0
2018-Sep-14 22:30N 49°27' W 000°18'510.1
2018-Sep-14 22:04N 49°23' W 000°15'110.3
2018-Sep-14 22:01N 49°23' W 000°15'510.5
2018-Sep-14 21:30N 49°17' W 000°15'  

Dump ship's entire track history